^^
Station Historical Data
Daily Summary for May 17, 2018 Units:  Both    English   Metric
« Previous Day
Next Day »
Daily Weekly Monthly Yearly Custom
  High: Low: Average:
Temperature: TemperatureF °F /  -17.8 °C 61.3 °F /  16.3 °C 66.3 °F /  19.1 °C
Dew Point: DewpointF °F /  -17.8 °C 61.0 °F /  16.1 °C 64.2 °F /  17.9 °C
Humidity: Humidity% 77% 93%
Wind Speed: WindSpeedMPHmph /  0km/h - 0.2mph /  0.3km/h
Wind Gust: WindSpeedGustMPHmph /  0km/h - -
Wind- - SSE
Pressure: PressureIn in /  0 hPa 30.20 in /  1022.6 hPa -
Precipitation: 0.47 in /  11.94 mm    
Historical Graphs
 
 
Tabular Data for May 17, 2018
Time Temperature Dew Point Pressure Wind Wind Speed Wind Gust Humidity Rainfall Rate (Hourly)
TemperatureF °F /  -17.8 °C DewpointF °F /  -17.8 °C PressureInin /  0hPa Calm     Humidity% HourlyPrecipInin /  0mm
00:03 63.1 °F /  17.3 °C 62.8 °F /  17.1 °C 30.29in /  1025.6hPa Calm     99% 0.00in /  0mm
00:08 63.0 °F /  17.2 °C 62.6 °F /  17 °C 30.29in /  1025.6hPa Calm     99% 0.00in /  0mm
00:13 63.0 °F /  17.2 °C 62.6 °F /  17 °C 30.29in /  1025.6hPa Calm     99% 0.00in /  0mm
00:18 63.0 °F /  17.2 °C 62.6 °F /  17 °C 30.29in /  1025.6hPa Calm     99% 0.00in /  0mm
00:28 63.0 °F /  17.2 °C 62.6 °F /  17 °C 30.29in /  1025.6hPa Calm     99% 0.00in /  0mm
00:33 63.0 °F /  17.2 °C 62.6 °F /  17 °C 30.29in /  1025.6hPa Calm   1.0mph /  1.6km/h 99% 0.00in /  0mm
00:39 63.0 °F /  17.2 °C 62.6 °F /  17 °C 30.29in /  1025.6hPa Calm   1.0mph /  1.6km/h 99% 0.00in /  0mm
00:44 62.8 °F /  17.1 °C 62.4 °F /  16.9 °C 30.29in /  1025.6hPa Calm     99% 0.00in /  0mm
00:49 62.8 °F /  17.1 °C 62.4 °F /  16.9 °C 30.29in /  1025.6hPa Calm     99% 0.00in /  0mm
00:54 62.8 °F /  17.1 °C 62.4 °F /  16.9 °C 30.29in /  1025.6hPa Calm     99% 0.00in /  0mm
00:59 63.0 °F /  17.2 °C 62.6 °F /  17 °C 30.29in /  1025.6hPa Calm     99% 0.00in /  0mm
01:04 63.0 °F /  17.2 °C 62.6 °F /  17 °C 30.29in /  1025.6hPa Calm   1.0mph /  1.6km/h 99% 0.00in /  0mm
01:09 63.0 °F /  17.2 °C 62.6 °F /  17 °C 30.29in /  1025.6hPa Calm     99% 0.00in /  0mm
01:14 63.1 °F /  17.3 °C 62.8 °F /  17.1 °C 30.29in /  1025.6hPa Calm     99% 0.00in /  0mm
01:29 63.0 °F /  17.2 °C 62.6 °F /  17 °C 30.29in /  1025.6hPa Calm     99% 0.00in /  0mm
01:39 62.8 °F /  17.1 °C 62.4 °F /  16.9 °C 30.29in /  1025.6hPa Calm     99% 0.00in /  0mm
01:44 63.0 °F /  17.2 °C 62.6 °F /  17 °C 30.29in /  1025.6hPa Calm   1.0mph /  1.6km/h 99% 0.00in /  0mm
01:49 63.0 °F /  17.2 °C 62.6 °F /  17 °C 30.29in /  1025.6hPa Calm     99% 0.00in /  0mm
02:04 63.0 °F /  17.2 °C 62.6 °F /  17 °C 30.29in /  1025.6hPa Calm     99% 0.00in /  0mm
02:14 63.0 °F /  17.2 °C 62.6 °F /  17 °C 30.29in /  1025.6hPa Calm     99% 0.00in /  0mm
02:19 63.0 °F /  17.2 °C 62.6 °F /  17 °C 30.29in /  1025.6hPa Calm     99% 0.00in /  0mm
02:24 63.0 °F /  17.2 °C 62.6 °F /  17 °C 30.29in /  1025.6hPa Calm   1.0mph /  1.6km/h 99% 0.00in /  0mm
02:29 63.0 °F /  17.2 °C 62.6 °F /  17 °C 30.29in /  1025.6hPa Calm     99% 0.00in /  0mm
02:34 63.0 °F /  17.2 °C 62.6 °F /  17 °C 30.29in /  1025.6hPa Calm     99% 0.00in /  0mm
02:40 63.0 °F /  17.2 °C 62.6 °F /  17 °C 30.29in /  1025.6hPa Calm     99% 0.00in /  0mm
02:45 62.8 °F /  17.1 °C 62.4 °F /  16.9 °C 30.28in /  1025.3hPa Calm     99% 0.00in /  0mm
02:50 63.0 °F /  17.2 °C 62.6 °F /  17 °C 30.28in /  1025.3hPa Calm     99% 0.00in /  0mm
02:55 62.8 °F /  17.1 °C 62.4 °F /  16.9 °C 30.28in /  1025.3hPa Calm     99% 0.00in /  0mm
03:00 63.0 °F /  17.2 °C 62.6 °F /  17 °C 30.28in /  1025.3hPa Calm     99% 0.00in /  0mm
03:05 63.0 °F /  17.2 °C 62.6 °F /  17 °C 30.28in /  1025.3hPa Calm     99% 0.00in /  0mm
03:15 62.8 °F /  17.1 °C 62.4 °F /  16.9 °C 30.27in /  1024.9hPa Calm     99% 0.00in /  0mm
03:20 62.8 °F /  17.1 °C 62.4 °F /  16.9 °C 30.28in /  1025.3hPa Calm     99% 0.00in /  0mm
03:25 62.8 °F /  17.1 °C 62.4 °F /  16.9 °C 30.28in /  1025.3hPa Calm     99% 0.00in /  0mm
03:30 62.6 °F /  17 °C 62.2 °F /  16.8 °C 30.28in /  1025.3hPa Calm     99% 0.00in /  0mm
03:35 62.4 °F /  16.9 °C 62.1 °F /  16.7 °C 30.27in /  1024.9hPa Calm   1.0mph /  1.6km/h 99% 0.00in /  0mm
03:40 62.6 °F /  17 °C 62.2 °F /  16.8 °C 30.28in /  1025.3hPa Calm   1.0mph /  1.6km/h 99% 0.00in /  0mm
03:45 62.6 °F /  17 °C 62.2 °F /  16.8 °C 30.27in /  1024.9hPa Calm     99% 0.00in /  0mm
03:50 62.4 °F /  16.9 °C 62.1 °F /  16.7 °C 30.27in /  1024.9hPa Calm     99% 0.00in /  0mm
03:55 62.4 °F /  16.9 °C 62.1 °F /  16.7 °C 30.27in /  1024.9hPa Calm     99% 0.00in /  0mm
04:00 62.4 °F /  16.9 °C 62.1 °F /  16.7 °C 30.27in /  1024.9hPa Calm     99% 0.00in /  0mm
04:05 62.2 °F /  16.8 °C 61.9 °F /  16.6 °C 30.27in /  1024.9hPa Calm     99% 0.00in /  0mm
04:10 62.2 °F /  16.8 °C 61.9 °F /  16.6 °C 30.27in /  1024.9hPa Calm     99% 0.00in /  0mm
04:16 62.2 °F /  16.8 °C 61.9 °F /  16.6 °C 30.27in /  1024.9hPa Calm     99% 0.00in /  0mm
04:31 62.1 °F /  16.7 °C 61.7 °F /  16.5 °C 30.27in /  1024.9hPa Calm     99% 0.00in /  0mm
04:46 62.1 °F /  16.7 °C 61.7 °F /  16.5 °C 30.28in /  1025.3hPa Calm     99% 0.00in /  0mm
04:51 61.9 °F /  16.6 °C 61.5 °F /  16.4 °C 30.28in /  1025.3hPa Calm     99% 0.00in /  0mm
05:01 61.9 °F /  16.6 °C 61.5 °F /  16.4 °C 30.27in /  1024.9hPa Calm   1.0mph /  1.6km/h 99% 0.00in /  0mm
05:11 61.7 °F /  16.5 °C 61.3 °F /  16.3 °C 30.27in /  1024.9hPa Calm     99% 0.00in /  0mm
05:16 61.7 °F /  16.5 °C 61.3 °F /  16.3 °C 30.28in /  1025.3hPa Calm     99% 0.00in /  0mm
05:21 61.5 °F /  16.4 °C 61.2 °F /  16.2 °C 30.28in /  1025.3hPa Calm     99% 0.00in /  0mm
05:26 61.5 °F /  16.4 °C 61.2 °F /  16.2 °C 30.27in /  1024.9hPa Calm     99% 0.00in /  0mm
05:31 61.3 °F /  16.3 °C 61.0 °F /  16.1 °C 30.28in /  1025.3hPa Calm     99% 0.00in /  0mm
05:41 61.3 °F /  16.3 °C 61.0 °F /  16.1 °C 30.28in /  1025.3hPa Calm     99% 0.00in /  0mm
05:46 61.3 °F /  16.3 °C 61.0 °F /  16.1 °C 30.28in /  1025.3hPa Calm     99% 0.00in /  0mm
05:51 61.3 °F /  16.3 °C 61.0 °F /  16.1 °C 30.28in /  1025.3hPa Calm     99% 0.00in /  0mm
05:56 61.3 °F /  16.3 °C 61.0 °F /  16.1 °C 30.28in /  1025.3hPa Calm     99% 0.00in /  0mm
06:01 61.3 °F /  16.3 °C 61.0 °F /  16.1 °C 30.28in /  1025.3hPa Calm     99% 0.00in /  0mm
06:11 61.5 °F /  16.4 °C 61.2 °F /  16.2 °C 30.28in /  1025.3hPa Calm     99% 0.00in /  0mm
06:21 61.5 °F /  16.4 °C 61.2 °F /  16.2 °C 30.28in /  1025.3hPa Calm     99% 0.00in /  0mm
06:26 61.5 °F /  16.4 °C 61.2 °F /  16.2 °C 30.27in /  1024.9hPa Calm     99% 0.00in /  0mm
06:31 61.7 °F /  16.5 °C 61.3 °F /  16.3 °C 30.27in /  1024.9hPa Calm   1.0mph /  1.6km/h 99% 0.00in /  0mm
06:36 61.7 °F /  16.5 °C 61.3 °F /  16.3 °C 30.28in /  1025.3hPa Calm     99% 0.00in /  0mm
06:41 61.7 °F /  16.5 °C 61.3 °F /  16.3 °C 30.28in /  1025.3hPa Calm     99% 0.00in /  0mm
06:46 61.7 °F /  16.5 °C 61.3 °F /  16.3 °C 30.28in /  1025.3hPa Calm     99% 0.00in /  0mm
06:56 61.9 °F /  16.6 °C 61.5 °F /  16.4 °C 30.29in /  1025.6hPa Calm     99% 0.00in /  0mm
07:01 61.9 °F /  16.6 °C 61.9 °F /  16.6 °C 30.29in /  1025.6hPa Calm   1.0mph /  1.6km/h 100% 0.00in /  0mm
07:06 61.9 °F /  16.6 °C 61.5 °F /  16.4 °C 30.29in /  1025.6hPa Calm     99% 0.00in /  0mm
07:11 62.1 °F /  16.7 °C 61.7 °F /  16.5 °C 30.29in /  1025.6hPa Calm     99% 0.00in /  0mm
07:16 62.1 °F /  16.7 °C 61.7 °F /  16.5 °C 30.29in /  1025.6hPa Calm     99% 0.00in /  0mm
07:21 61.9 °F /  16.6 °C 61.5 °F /  16.4 °C 30.29in /  1025.6hPa Calm     99% 0.00in /  0mm
07:26 62.1 °F /  16.7 °C 61.7 °F /  16.5 °C 30.29in /  1025.6hPa Calm     99% 0.00in /  0mm
07:31 62.2 °F /  16.8 °C 62.2 °F /  16.8 °C 30.29in /  1025.6hPa Calm     100% 0.00in /  0mm
07:36 62.4 °F /  16.9 °C 62.4 °F /  16.9 °C 30.29in /  1025.6hPa Calm     100% 0.00in /  0mm
07:46 62.4 °F /  16.9 °C 62.1 °F /  16.7 °C 30.29in /  1025.6hPa NE 0.9mph /  1.4km/h 2.0mph /  3.2km/h 99% 0.00in /  0mm
07:51 62.4 °F /  16.9 °C 62.1 °F /  16.7 °C 30.29in /  1025.6hPa Calm   1.0mph /  1.6km/h 99% 0.00in /  0mm
07:56 62.8 °F /  17.1 °C 62.4 °F /  16.9 °C 30.29in /  1025.6hPa Calm     99% 0.00in /  0mm
08:01 63.0 °F /  17.2 °C 62.6 °F /  17 °C 30.29in /  1025.6hPa Calm   1.0mph /  1.6km/h 99% 0.00in /  0mm
08:06 63.1 °F /  17.3 °C 62.8 °F /  17.1 °C 30.30in /  1026hPa Calm     99% 0.00in /  0mm
08:11 63.5 °F /  17.5 °C 63.1 °F /  17.3 °C 30.30in /  1026hPa Calm     99% 0.00in /  0mm
08:16 63.9 °F /  17.7 °C 63.5 °F /  17.5 °C 30.30in /  1026hPa Calm     99% 0.00in /  0mm
08:21 63.9 °F /  17.7 °C 63.5 °F /  17.5 °C 30.29in /  1025.6hPa Calm     99% 0.00in /  0mm
08:26 63.7 °F /  17.6 °C 63.3 °F /  17.4 °C 30.29in /  1025.6hPa Calm   1.0mph /  1.6km/h 99% 0.00in /  0mm
08:31 63.9 °F /  17.7 °C 63.3 °F /  17.4 °C 30.29in /  1025.6hPa Calm     98% 0.00in /  0mm
08:36 64.0 °F /  17.8 °C 63.5 °F /  17.5 °C 30.29in /  1025.6hPa Calm     98% 0.00in /  0mm
08:41 64.2 °F /  17.9 °C 63.7 °F /  17.6 °C 30.29in /  1025.6hPa Calm   1.0mph /  1.6km/h 98% 0.00in /  0mm
08:46 64.2 °F /  17.9 °C 63.7 °F /  17.6 °C 30.29in /  1025.6hPa Calm   1.0mph /  1.6km/h 98% 0.00in /  0mm
08:51 64.4 °F /  18 °C 63.5 °F /  17.5 °C 30.29in /  1025.6hPa Calm     97% 0.00in /  0mm
08:57 64.6 °F /  18.1 °C 63.7 °F /  17.6 °C 30.29in /  1025.6hPa Calm   1.0mph /  1.6km/h 97% 0.00in /  0mm
09:02 64.9 °F /  18.3 °C 64.0 °F /  17.8 °C 30.29in /  1025.6hPa Calm   1.0mph /  1.6km/h 97% 0.00in /  0mm
09:07 65.1 °F /  18.4 °C 64.0 °F /  17.8 °C 30.29in /  1025.6hPa Calm   1.0mph /  1.6km/h 96% 0.00in /  0mm
09:12 65.7 °F /  18.7 °C 64.4 °F /  18 °C 30.30in /  1026hPa Calm     96% 0.00in /  0mm
09:17 66.4 °F /  19.1 °C 64.9 °F /  18.3 °C 30.30in /  1026hPa Calm     95% 0.00in /  0mm
09:22 66.9 °F /  19.4 °C 65.1 °F /  18.4 °C 30.30in /  1026hPa Calm     94% 0.00in /  0mm
09:27 67.3 °F /  19.6 °C 64.9 °F /  18.3 °C 30.29in /  1025.6hPa Calm     92% 0.00in /  0mm
09:32 67.6 °F /  19.8 °C 65.5 °F /  18.6 °C 30.30in /  1026hPa ESE 1.0mph /  1.6km/h 1.0mph /  1.6km/h 93% 0.00in /  0mm
09:42 68.4 °F /  20.2 °C 65.3 °F /  18.5 °C 30.29in /  1025.6hPa WSW 0.9mph /  1.4km/h 1.0mph /  1.6km/h 90% 0.00in /  0mm
09:57 69.6 °F /  20.9 °C 65.3 °F /  18.5 °C 30.29in /  1025.6hPa WNW 0.9mph /  1.4km/h 2.0mph /  3.2km/h 86% 0.00in /  0mm
10:02 69.4 °F /  20.8 °C 65.7 °F /  18.7 °C 30.29in /  1025.6hPa Calm   1.0mph /  1.6km/h 88% 0.00in /  0mm
10:07 69.4 °F /  20.8 °C 65.7 °F /  18.7 °C 30.29in /  1025.6hPa SE 0.9mph /  1.4km/h 1.0mph /  1.6km/h 88% 0.00in /  0mm
10:12 69.3 °F /  20.7 °C 65.3 °F /  18.5 °C 30.29in /  1025.6hPa NE 2.0mph /  3.2km/h 2.0mph /  3.2km/h 87% 0.00in /  0mm
10:17 69.1 °F /  20.6 °C 65.7 °F /  18.7 °C 30.29in /  1025.6hPa Calm   1.0mph /  1.6km/h 89% 0.00in /  0mm
10:22 69.4 °F /  20.8 °C 66.0 °F /  18.9 °C 30.29in /  1025.6hPa SE 0.9mph /  1.4km/h 1.0mph /  1.6km/h 89% 0.00in /  0mm
10:27 69.6 °F /  20.9 °C 65.8 °F /  18.8 °C 30.29in /  1025.6hPa East 0.9mph /  1.4km/h 2.0mph /  3.2km/h 88% 0.00in /  0mm
10:32 69.8 °F /  21 °C 65.8 °F /  18.8 °C 30.29in /  1025.6hPa ENE 0.9mph /  1.4km/h 2.0mph /  3.2km/h 87% 0.00in /  0mm
10:37 70.0 °F /  21.1 °C 66.0 °F /  18.9 °C 30.29in /  1025.6hPa ESE 2.0mph /  3.2km/h 2.0mph /  3.2km/h 87% 0.00in /  0mm
10:42 70.2 °F /  21.2 °C 66.4 °F /  19.1 °C 30.29in /  1025.6hPa Calm     88% 0.00in /  0mm
10:47 70.3 °F /  21.3 °C 65.3 °F /  18.5 °C 30.29in /  1025.6hPa Calm   1.0mph /  1.6km/h 84% 0.00in /  0mm
10:52 70.7 °F /  21.5 °C 65.7 °F /  18.7 °C 30.29in /  1025.6hPa Calm     84% 0.00in /  0mm
10:57 71.1 °F /  21.7 °C 66.7 °F /  19.3 °C 30.29in /  1025.6hPa Calm     86% 0.00in /  0mm
11:02 71.4 °F /  21.9 °C 67.3 °F /  19.6 °C 30.29in /  1025.6hPa Calm   1.0mph /  1.6km/h 87% 0.00in /  0mm
11:07 71.4 °F /  21.9 °C 66.4 °F /  19.1 °C 30.29in /  1025.6hPa Calm   1.0mph /  1.6km/h 84% 0.00in /  0mm
11:12 71.4 °F /  21.9 °C 66.0 °F /  18.9 °C 30.29in /  1025.6hPa Calm   1.0mph /  1.6km/h 83% 0.00in /  0mm
11:23 71.2 °F /  21.8 °C 65.8 °F /  18.8 °C 30.29in /  1025.6hPa WNW 2.0mph /  3.2km/h 2.0mph /  3.2km/h 83% 0.00in /  0mm
11:28 71.1 °F /  21.7 °C 66.7 °F /  19.3 °C 30.29in /  1025.6hPa Calm     86% 0.00in /  0mm
11:33 71.1 °F /  21.7 °C 66.7 °F /  19.3 °C 30.29in /  1025.6hPa Calm   1.0mph /  1.6km/h 86% 0.00in /  0mm
11:43 71.2 °F /  21.8 °C 65.8 °F /  18.8 °C 30.29in /  1025.6hPa Calm   1.0mph /  1.6km/h 83% 0.00in /  0mm
11:58 71.6 °F /  22 °C 66.2 °F /  19 °C 30.29in /  1025.6hPa WNW 2.0mph /  3.2km/h 2.0mph /  3.2km/h 83% 0.00in /  0mm
12:03 71.4 °F /  21.9 °C 66.4 °F /  19.1 °C 30.29in /  1025.6hPa Calm   1.0mph /  1.6km/h 84% 0.00in /  0mm
12:13 70.9 °F /  21.6 °C 67.5 °F /  19.7 °C 30.29in /  1025.6hPa Calm   1.0mph /  1.6km/h 89% 0.01in /  0.25mm
12:23 70.2 °F /  21.2 °C 67.6 °F /  19.8 °C 30.29in /  1025.6hPa Calm     92% 0.03in /  0.76mm
12:28 70.0 °F /  21.1 °C 67.8 °F /  19.9 °C 30.29in /  1025.6hPa Calm     93% 0.03in /  0.76mm
12:33 70.0 °F /  21.1 °C 67.8 °F /  19.9 °C 30.29in /  1025.6hPa Calm   1.0mph /  1.6km/h 93% 0.03in /  0.76mm
12:38 70.0 °F /  21.1 °C 68.2 °F /  20.1 °C 30.29in /  1025.6hPa Calm   1.0mph /  1.6km/h 94% 0.04in /  1.02mm
12:48 70.7 °F /  21.5 °C 69.3 °F /  20.7 °C 30.28in /  1025.3hPa Calm   1.0mph /  1.6km/h 95% 0.04in /  1.02mm
12:53 70.9 °F /  21.6 °C 68.7 °F /  20.4 °C 30.28in /  1025.3hPa Calm   2.0mph /  3.2km/h 93% 0.04in /  1.02mm
13:13 71.6 °F /  22 °C 67.8 °F /  19.9 °C 30.28in /  1025.3hPa Calm   1.0mph /  1.6km/h 88% 0.04in /  1.02mm
13:18 72.1 °F /  22.3 °C 69.1 °F /  20.6 °C 30.27in /  1024.9hPa Calm   3.0mph /  4.8km/h 90% 0.03in /  0.76mm
13:23 72.3 °F /  22.4 °C 68.5 °F /  20.3 °C 30.27in /  1024.9hPa ESE 2.0mph /  3.2km/h 2.0mph /  3.2km/h 88% 0.02in /  0.51mm
13:33 72.9 °F /  22.7 °C 68.7 °F /  20.4 °C 30.27in /  1024.9hPa Calm     87% 0.02in /  0.51mm
13:43 73.9 °F /  23.3 °C 68.4 °F /  20.2 °C 30.27in /  1024.9hPa Calm   2.0mph /  3.2km/h 83% 0.01in /  0.25mm
13:53 73.8 °F /  23.2 °C 68.4 °F /  20.2 °C 30.26in /  1024.6hPa Calm   1.0mph /  1.6km/h 83% 0.01in /  0.25mm
13:58 73.8 °F /  23.2 °C 67.6 °F /  19.8 °C 30.26in /  1024.6hPa Calm   2.0mph /  3.2km/h 81% 0.01in /  0.25mm
14:03 73.2 °F /  22.9 °C 67.5 °F /  19.7 °C 30.26in /  1024.6hPa East 0.9mph /  1.4km/h 2.0mph /  3.2km/h 82% 0.01in /  0.25mm
14:13 73.6 °F /  23.1 °C 67.5 °F /  19.7 °C 30.25in /  1024.3hPa East 0.9mph /  1.4km/h 2.0mph /  3.2km/h 81% 0.00in /  0mm
14:18 73.2 °F /  22.9 °C 67.5 °F /  19.7 °C 30.25in /  1024.3hPa ESE 2.9mph /  4.7km/h 6.0mph /  9.7km/h 82% 0.00in /  0mm
14:23 73.0 °F /  22.8 °C 67.3 °F /  19.6 °C 30.25in /  1024.3hPa ESE 2.9mph /  4.7km/h 5.0mph /  8km/h 82% 0.00in /  0mm
14:33 71.8 °F /  22.1 °C 66.4 °F /  19.1 °C 30.25in /  1024.3hPa ENE 2.0mph /  3.2km/h 5.0mph /  8km/h 83% 0.00in /  0mm
15:14 70.5 °F /  21.4 °C 67.1 °F /  19.5 °C 30.24in /  1023.9hPa Calm   2.0mph /  3.2km/h 89% 0.04in /  1.02mm
15:29 71.4 °F /  21.9 °C 67.1 °F /  19.5 °C 30.23in /  1023.6hPa Calm   1.0mph /  1.6km/h 86% 0.04in /  1.02mm
15:34 72.1 °F /  22.3 °C 67.1 °F /  19.5 °C 30.23in /  1023.6hPa WNW 0.9mph /  1.4km/h 2.0mph /  3.2km/h 84% 0.04in /  1.02mm
15:39 72.9 °F /  22.7 °C 67.5 °F /  19.7 °C 30.23in /  1023.6hPa WNW 2.0mph /  3.2km/h 2.0mph /  3.2km/h 83% 0.04in /  1.02mm
15:44 73.2 °F /  22.9 °C 67.1 °F /  19.5 °C 30.22in /  1023.2hPa Calm   2.0mph /  3.2km/h 81% 0.04in /  1.02mm
16:14 75.4 °F /  24.1 °C 69.8 °F /  21 °C 30.22in /  1023.2hPa West 0.9mph /  1.4km/h 1.0mph /  1.6km/h 83% 0.00in /  0mm
16:19 75.0 °F /  23.9 °C 68.7 °F /  20.4 °C 30.22in /  1023.2hPa Calm   1.0mph /  1.6km/h 81% 0.00in /  0mm
16:44 73.6 °F /  23.1 °C 65.8 °F /  18.8 °C 30.21in /  1022.9hPa WNW 0.9mph /  1.4km/h 2.0mph /  3.2km/h 77% 0.00in /  0mm
16:49 73.6 °F /  23.1 °C 65.8 °F /  18.8 °C 30.21in /  1022.9hPa NE 2.9mph /  4.7km/h 3.0mph /  4.8km/h 77% 0.00in /  0mm
16:54 73.9 °F /  23.3 °C 66.2 °F /  19 °C 30.21in /  1022.9hPa West 0.9mph /  1.4km/h 3.0mph /  4.8km/h 77% 0.00in /  0mm
17:04 74.5 °F /  23.6 °C 67.5 °F /  19.7 °C 30.22in /  1023.2hPa Calm   5.0mph /  8km/h 79% 0.00in /  0mm
17:14 72.3 °F /  22.4 °C 66.2 °F /  19 °C 30.22in /  1023.2hPa ENE 0.9mph /  1.4km/h 1.0mph /  1.6km/h 81% 0.00in /  0mm
17:19 71.8 °F /  22.1 °C 67.1 °F /  19.5 °C 30.22in /  1023.2hPa WNW 2.0mph /  3.2km/h 2.0mph /  3.2km/h 85% 0.00in /  0mm
17:25 71.6 °F /  22 °C 66.6 °F /  19.2 °C 30.21in /  1022.9hPa Calm   1.0mph /  1.6km/h 84% 0.00in /  0mm
17:30 71.2 °F /  21.8 °C 67.1 °F /  19.5 °C 30.21in /  1022.9hPa Calm   1.0mph /  1.6km/h 87% 0.00in /  0mm
17:40 70.9 °F /  21.6 °C 67.1 °F /  19.5 °C 30.20in /  1022.6hPa Calm   1.0mph /  1.6km/h 88% 0.00in /  0mm
17:45 70.7 °F /  21.5 °C 67.3 °F /  19.6 °C 30.20in /  1022.6hPa Calm   1.0mph /  1.6km/h 89% 0.00in /  0mm
17:55 70.2 °F /  21.2 °C 67.1 °F /  19.5 °C 30.20in /  1022.6hPa Calm   1.0mph /  1.6km/h 90% 0.00in /  0mm
18:05 69.4 °F /  20.8 °C 67.1 °F /  19.5 °C 30.20in /  1022.6hPa Calm     92% 0.00in /  0mm
18:15 69.3 °F /  20.7 °C 66.9 °F /  19.4 °C 30.20in /  1022.6hPa Calm     92% 0.00in /  0mm
18:20 69.3 °F /  20.7 °C 67.1 °F /  19.5 °C 30.20in /  1022.6hPa Calm     93% 0.00in /  0mm
18:30 71.4 °F /  21.9 °C 68.9 °F /  20.5 °C 30.21in /  1022.9hPa Calm   1.0mph /  1.6km/h 92% 0.00in /  0mm
18:35 72.7 °F /  22.6 °C 69.3 °F /  20.7 °C 30.21in /  1022.9hPa Calm     89% 0.00in /  0mm
18:40 73.9 °F /  23.3 °C 69.1 °F /  20.6 °C 30.21in /  1022.9hPa ENE 0.9mph /  1.4km/h 1.0mph /  1.6km/h 85% 0.00in /  0mm
18:50 73.8 °F /  23.2 °C 69.3 °F /  20.7 °C 30.21in /  1022.9hPa Calm   1.0mph /  1.6km/h 86% 0.00in /  0mm
18:55 73.2 °F /  22.9 °C 68.2 °F /  20.1 °C 30.21in /  1022.9hPa Calm   1.0mph /  1.6km/h 84% 0.00in /  0mm
19:00 73.9 °F /  23.3 °C 69.1 °F /  20.6 °C 30.20in /  1022.6hPa Calm   1.0mph /  1.6km/h 85% 0.00in /  0mm
19:10 72.7 °F /  22.6 °C 68.5 °F /  20.3 °C 30.21in /  1022.9hPa Calm   1.0mph /  1.6km/h 87% 0.00in /  0mm
19:21 71.1 °F /  21.7 °C 68.4 °F /  20.2 °C 30.21in /  1022.9hPa Calm     91% 0.00in /  0mm
19:26 70.5 °F /  21.4 °C 67.5 °F /  19.7 °C 30.21in /  1022.9hPa Calm   1.0mph /  1.6km/h 90% 0.00in /  0mm
19:31 70.0 °F /  21.1 °C 65.7 °F /  18.7 °C 30.22in /  1023.2hPa Calm   2.0mph /  3.2km/h 86% 0.00in /  0mm
19:36 69.4 °F /  20.8 °C 64.8 °F /  18.2 °C 30.22in /  1023.2hPa Calm     85% 0.00in /  0mm
19:41 69.3 °F /  20.7 °C 64.6 °F /  18.1 °C 30.22in /  1023.2hPa Calm   2.0mph /  3.2km/h 85% 0.00in /  0mm
19:46 69.1 °F /  20.6 °C 64.0 °F /  17.8 °C 30.22in /  1023.2hPa Calm   2.0mph /  3.2km/h 84% 0.00in /  0mm
19:51 68.9 °F /  20.5 °C 64.9 °F /  18.3 °C 30.22in /  1023.2hPa Calm   1.0mph /  1.6km/h 87% 0.00in /  0mm
19:56 68.4 °F /  20.2 °C 65.3 °F /  18.5 °C 30.22in /  1023.2hPa Calm   1.0mph /  1.6km/h 90% 0.00in /  0mm
20:01 67.6 °F /  19.8 °C 64.9 °F /  18.3 °C 30.22in /  1023.2hPa Calm   1.0mph /  1.6km/h 91% 0.00in /  0mm
20:06 67.5 °F /  19.7 °C 65.3 °F /  18.5 °C 30.23in /  1023.6hPa Calm   1.0mph /  1.6km/h 93% 0.00in /  0mm
20:11 67.3 °F /  19.6 °C 65.1 °F /  18.4 °C 30.23in /  1023.6hPa Calm   1.0mph /  1.6km/h 93% 0.00in /  0mm
20:21 67.6 °F /  19.8 °C 64.6 °F /  18.1 °C 30.23in /  1023.6hPa NE 4.0mph /  6.4km/h 7.0mph /  11.3km/h 90% 0.00in /  0mm
20:31 68.5 °F /  20.3 °C 64.8 °F /  18.2 °C 30.24in /  1023.9hPa Calm   2.0mph /  3.2km/h 88% 0.00in /  0mm
20:36 68.2 °F /  20.1 °C 64.8 °F /  18.2 °C 30.24in /  1023.9hPa Calm   2.0mph /  3.2km/h 89% 0.00in /  0mm
20:41 67.6 °F /  19.8 °C 64.2 °F /  17.9 °C 30.24in /  1023.9hPa Calm     89% 0.00in /  0mm
20:46 67.6 °F /  19.8 °C 64.6 °F /  18.1 °C 30.24in /  1023.9hPa NE 4.9mph /  7.9km/h 5.0mph /  8km/h 90% 0.01in /  0.25mm
20:51 68.0 °F /  20 °C 64.9 °F /  18.3 °C 30.24in /  1023.9hPa Calm   2.0mph /  3.2km/h 90% 0.01in /  0.25mm
20:56 67.5 °F /  19.7 °C 65.1 °F /  18.4 °C 30.24in /  1023.9hPa Calm   1.0mph /  1.6km/h 92% 0.03in /  0.76mm
21:06 66.6 °F /  19.2 °C 64.8 °F /  18.2 °C 30.24in /  1023.9hPa Calm     94% 0.05in /  1.27mm
21:12 66.0 °F /  18.9 °C 64.6 °F /  18.1 °C 30.24in /  1023.9hPa Calm     95% 0.05in /  1.27mm
21:17 65.8 °F /  18.8 °C 64.6 °F /  18.1 °C 30.24in /  1023.9hPa Calm     96% 0.05in /  1.27mm
21:22 65.8 °F /  18.8 °C 64.6 °F /  18.1 °C 30.24in /  1023.9hPa Calm     96% 0.05in /  1.27mm
21:27 65.7 °F /  18.7 °C 64.8 °F /  18.2 °C 30.25in /  1024.3hPa Calm     97% 0.06in /  1.52mm
21:32 65.5 °F /  18.6 °C 64.6 °F /  18.1 °C 30.25in /  1024.3hPa Calm     97% 0.06in /  1.52mm
21:37 65.5 °F /  18.6 °C 64.6 °F /  18.1 °C 30.25in /  1024.3hPa Calm     97% 0.06in /  1.52mm
21:42 65.5 °F /  18.6 °C 64.6 °F /  18.1 °C 30.25in /  1024.3hPa Calm   1.0mph /  1.6km/h 97% 0.06in /  1.52mm
21:47 65.5 °F /  18.6 °C 64.9 °F /  18.3 °C 30.26in /  1024.6hPa ESE 0.9mph /  1.4km/h 1.0mph /  1.6km/h 98% 0.05in /  1.27mm
21:52 65.7 °F /  18.7 °C 65.1 °F /  18.4 °C 30.26in /  1024.6hPa NE 2.9mph /  4.7km/h 4.0mph /  6.4km/h 98% 0.06in /  1.52mm
21:57 65.7 °F /  18.7 °C 64.8 °F /  18.2 °C 30.25in /  1024.3hPa Calm     97% 0.06in /  1.52mm
22:07 65.5 °F /  18.6 °C 64.6 °F /  18.1 °C 30.26in /  1024.6hPa Calm   1.0mph /  1.6km/h 97% 0.04in /  1.02mm
22:12 65.5 °F /  18.6 °C 64.6 °F /  18.1 °C 30.26in /  1024.6hPa Calm     97% 0.05in /  1.27mm
22:22 65.5 °F /  18.6 °C 64.9 °F /  18.3 °C 30.26in /  1024.6hPa Calm     98% 0.07in /  1.78mm
22:32 65.5 °F /  18.6 °C 64.9 °F /  18.3 °C 30.26in /  1024.6hPa Calm   3.0mph /  4.8km/h 98% 0.10in /  2.54mm
22:47 65.1 °F /  18.4 °C 64.6 °F /  18.1 °C 30.27in /  1024.9hPa Calm     98% 0.12in /  3.05mm
22:52 65.1 °F /  18.4 °C 64.6 °F /  18.1 °C 30.27in /  1024.9hPa Calm     98% 0.11in /  2.79mm
22:57 65.1 °F /  18.4 °C 64.6 °F /  18.1 °C 30.27in /  1024.9hPa Calm     98% 0.09in /  2.29mm
23:02 65.1 °F /  18.4 °C 64.6 °F /  18.1 °C 30.27in /  1024.9hPa Calm     98% 0.09in /  2.29mm
23:08 65.1 °F /  18.4 °C 64.6 °F /  18.1 °C 30.27in /  1024.9hPa Calm     98% 0.09in /  2.29mm
23:13 65.1 °F /  18.4 °C 64.6 °F /  18.1 °C 30.27in /  1024.9hPa Calm     98% 0.08in /  2.03mm
23:23 65.1 °F /  18.4 °C 64.8 °F /  18.2 °C 30.27in /  1024.9hPa Calm   1.0mph /  1.6km/h 99% 0.10in /  2.54mm
23:28 65.1 °F /  18.4 °C 64.8 °F /  18.2 °C 30.27in /  1024.9hPa Calm     99% 0.09in /  2.29mm
23:38 65.1 °F /  18.4 °C 64.8 °F /  18.2 °C 30.27in /  1024.9hPa Calm     99% 0.11in /  2.79mm
23:43 64.9 °F /  18.3 °C 64.6 °F /  18.1 °C 30.27in /  1024.9hPa Calm     99% 0.20in /  5.08mm
WheeWeather.com
Compliments of Weather Underground - 2.25 mb